Main page
METAR-TAF:

METAR-TAF

Airports :

Ilorin International Airport

Ilorin, Nigeria

latitude: 08-29N, longitude: 004-35E, elevation: 308 m

METAR: missing

Time: 07:25 (06:25 UTC)

Forecast

The report was made 14 hours and 55 minutes ago, at 15:30 UTC
Forecast valid from 22 at 18 UTC to 23 at 24 UTC
Wind kt from the North
Visibility 10 km or more
Scattered clouds at a height of 1300 ft
Probability 30% :
Temporary
from 22 at 18 UTC to 22 at 22 UTC
Few clouds at a height of 2000 ft, Cumulonimbus.
thunderstorm
Becoming
from 22 at 22 UTC to 22 at 24 UTC
Wind 5 kt from the Southeast
Visibility 10 km or more
no clouds below 1500 m and no cumulonimbus

TAF: DNIL 221530Z 2218/2324 00000KT 9999 SCT013 PROB30 TEMPO 2218/2222 TS FEW020CB BECMG 2222/2224 14005KT CAVOK

Weather observations and forecasts of more than 4000 airports (METAR and TAF reports).

The available stations are represented by yellow and red dots on the map.

Hover mouse over dot to see the name of the station.

Then click to see weather observations and forecasts.

To change the map : click on the green buttons with a black cross to zoom in, on the green button with a dash to zoom out, or on the green arrows for adjacent maps.


METAR-TAF: